createdAt,value
2019-02-28T00:00:23.913Z,23.87
2019-02-28T00:02:53.912Z,25.57
2019-02-28T00:05:22.607Z,18.60
2019-02-28T00:07:51.043Z,25.10
2019-02-28T00:10:19.475Z,26.03
2019-02-28T00:12:48.687Z,23.03
2019-02-28T00:15:17.130Z,23.97
2019-02-28T00:17:45.610Z,30.43
2019-02-28T00:20:14.077Z,22.83
2019-02-28T00:22:42.555Z,29.00
2019-02-28T00:25:11.164Z,27.10
2019-02-28T00:27:39.638Z,20.97
2019-02-28T00:30:11.393Z,22.53
2019-02-28T00:32:39.850Z,19.07
2019-02-28T00:35:12.802Z,14.87
2019-02-28T00:37:39.132Z,17.60
2019-02-28T00:40:09.343Z,14.60
2019-02-28T00:42:37.796Z,16.80
2019-02-28T00:45:14.329Z,17.50
2019-02-28T00:47:42.840Z,11.47
2019-02-28T00:50:11.525Z,21.03
2019-02-28T00:52:39.970Z,21.70
2019-02-28T00:55:14.566Z,17.23
2019-02-28T00:57:41.689Z,13.03
2019-02-28T01:00:18.197Z,16.73
2019-02-28T01:02:52.076Z,14.97
2019-02-28T01:05:16.814Z,16.00
2019-02-28T01:07:48.134Z,13.17
2019-02-28T01:10:15.602Z,17.10
2019-02-28T01:12:44.056Z,23.87
2019-02-28T01:15:16.980Z,14.63
2019-02-28T01:17:45.427Z,17.53
2019-02-28T01:20:16.055Z,15.70
2019-02-28T01:22:44.182Z,17.53
2019-02-28T01:25:17.338Z,18.20
2019-02-28T01:27:45.852Z,14.43
2019-02-28T01:30:15.354Z,23.10
2019-02-28T01:32:44.011Z,12.57
2019-02-28T01:35:12.467Z,12.97
2019-02-28T01:37:40.968Z,22.23
2019-02-28T01:40:11.818Z,14.53
2019-02-28T01:42:40.282Z,16.27
2019-02-28T01:45:11.002Z,14.23
2019-02-28T01:47:39.659Z,12.30
2019-02-28T01:50:10.160Z,14.20
2019-02-28T01:52:44.343Z,12.83
2019-02-28T01:55:10.285Z,17.10
2019-02-28T01:57:42.505Z,21.80
2019-02-28T02:00:17.239Z,18.17
2019-02-28T02:02:45.719Z,12.17
2019-02-28T02:05:16.976Z,19.53
2019-02-28T02:07:44.492Z,15.90
2019-02-28T02:10:21.278Z,17.40
2019-02-28T02:12:50.521Z,15.80
2019-02-28T02:15:18.994Z,13.73
2019-02-28T02:17:47.451Z,14.30
2019-02-28T02:20:16.773Z,10.23
2019-02-28T02:22:45.395Z,17.10
2019-02-28T02:25:14.202Z,15.03
2019-02-28T02:27:42.875Z,16.50
2019-02-28T02:30:22.708Z,22.77
2019-02-28T02:32:51.140Z,16.40
2019-02-28T02:35:19.611Z,16.03
2019-02-28T02:37:48.137Z,12.53
2019-02-28T02:40:17.456Z,26.17
2019-02-28T02:42:48.828Z,16.30
2019-02-28T02:45:16.577Z,16.20
2019-02-28T02:47:45.090Z,19.37
2019-02-28T02:50:14.610Z,16.87
2019-02-28T02:52:43.695Z,13.63
2019-02-28T02:55:12.625Z,14.17
2019-02-28T02:57:41.209Z,39.37
2019-02-28T03:00:17.168Z,16.83
2019-02-28T03:02:45.748Z,15.23
2019-02-28T03:05:14.754Z,18.37
2019-02-28T03:07:43.362Z,19.07
2019-02-28T03:10:17.326Z,25.43
2019-02-28T03:12:44.574Z,14.27
2019-02-28T03:15:15.276Z,14.00
2019-02-28T03:17:47.341Z,15.20
2019-02-28T03:20:14.380Z,17.00
2019-02-28T03:22:42.852Z,15.93
2019-02-28T03:25:13.497Z,13.80
2019-02-28T03:27:41.989Z,19.53
2019-02-28T03:30:26.015Z,15.53
2019-02-28T03:32:43.741Z,14.93
2019-02-28T03:35:12.145Z,16.43
2019-02-28T03:37:40.743Z,12.47
2019-02-28T03:40:11.463Z,15.97
2019-02-28T03:42:39.922Z,14.27
2019-02-28T03:45:11.194Z,14.30
2019-02-28T03:47:39.668Z,21.13
2019-02-28T03:50:10.156Z,15.83
2019-02-28T03:52:44.048Z,15.60
2019-02-28T03:55:10.815Z,14.33
2019-02-28T03:57:39.300Z,20.80
2019-02-28T04:00:13.538Z,25.93
2019-02-28T04:02:42.003Z,17.57
2019-02-28T04:05:10.552Z,16.57
2019-02-28T04:07:39.012Z,17.47
2019-02-28T04:10:09.922Z,21.33
2019-02-28T04:12:45.065Z,15.03
2019-02-28T04:15:14.672Z,18.20
2019-02-28T04:17:43.129Z,14.47
2019-02-28T04:20:11.719Z,12.73
2019-02-28T04:22:40.184Z,14.17
2019-02-28T04:25:09.997Z,17.73
2019-02-28T04:27:40.466Z,17.93
2019-02-28T04:30:15.503Z,14.57
2019-02-28T04:32:43.943Z,17.33
2019-02-28T04:35:12.992Z,28.43
2019-02-28T04:37:46.733Z,12.53
2019-02-28T04:40:14.603Z,17.87
2019-02-28T04:42:43.055Z,18.70
2019-02-28T04:45:13.314Z,14.33
2019-02-28T04:47:41.967Z,18.80
2019-02-28T04:50:12.265Z,13.50
2019-02-28T04:52:46.282Z,25.13
2019-02-28T04:55:11.963Z,16.70
2019-02-28T04:57:40.482Z,13.07
2019-02-28T05:00:19.215Z,21.03
2019-02-28T05:02:47.702Z,14.80
2019-02-28T05:05:16.241Z,19.00
2019-02-28T05:07:44.673Z,15.20
2019-02-28T05:10:13.228Z,15.10
2019-02-28T05:12:41.754Z,15.63
2019-02-28T05:15:16.273Z,12.27
2019-02-28T05:17:44.710Z,14.40
2019-02-28T05:20:13.539Z,17.63
2019-02-28T05:22:41.977Z,17.33
2019-02-28T05:25:17.827Z,29.47
2019-02-28T05:27:41.700Z,12.43
2019-02-28T05:30:17.977Z,16.90
2019-02-28T05:32:43.471Z,10.70
2019-02-28T05:35:11.986Z,9.20
2019-02-28T05:37:46.515Z,17.23
2019-02-28T05:40:13.741Z,14.70
2019-02-28T05:42:42.199Z,11.10
2019-02-28T05:45:14.571Z,15.13
2019-02-28T05:47:46.161Z,11.20
2019-02-28T05:50:16.764Z,21.37
2019-02-28T05:52:43.199Z,16.87
2019-02-28T05:55:11.781Z,15.47
2019-02-28T05:57:43.270Z,12.78
2019-02-28T06:00:16.378Z,11.90
2019-02-28T06:02:44.991Z,13.90
2019-02-28T06:05:13.505Z,14.80
2019-02-28T06:07:42.051Z,14.90
2019-02-28T06:10:12.610Z,18.00
2019-02-28T06:12:43.891Z,11.05
2019-02-28T06:15:15.667Z,15.25
2019-02-28T06:17:44.198Z,18.10
2019-02-28T06:20:16.270Z,13.87
2019-02-28T06:22:44.071Z,14.33
2019-02-28T06:25:21.999Z,13.10
2019-02-28T06:27:48.915Z,15.13
2019-02-28T06:30:16.136Z,13.47
2019-02-28T06:32:44.754Z,13.90
2019-02-28T06:35:15.931Z,12.20
2019-02-28T06:37:43.375Z,15.15
2019-02-28T06:40:15.437Z,18.85
2019-02-28T06:42:46.737Z,14.13
2019-02-28T06:45:15.973Z,14.00
2019-02-28T06:47:48.003Z,15.23
2019-02-28T06:50:15.339Z,26.47
2019-02-28T06:52:43.873Z,15.80
2019-02-28T06:55:14.097Z,12.00
2019-02-28T06:57:42.567Z,14.43
2019-02-28T07:00:14.227Z,14.80
2019-02-28T07:02:42.863Z,13.77
2019-02-28T07:05:11.443Z,26.90
2019-02-28T07:07:39.885Z,22.75
2019-02-28T07:10:13.650Z,22.10
2019-02-28T07:12:42.082Z,21.80
2019-02-28T07:15:11.260Z,46.27
2019-02-28T07:17:42.719Z,33.50
2019-02-28T07:20:12.738Z,39.37
2019-02-28T07:22:41.193Z,43.87
2019-02-28T07:25:12.850Z,29.90
2019-02-28T07:27:40.931Z,43.00
2019-02-28T07:30:18.444Z,42.87
2019-02-28T07:32:45.277Z,59.17
2019-02-28T07:35:13.711Z,65.00
2019-02-28T07:37:42.208Z,54.43
2019-02-28T07:40:16.394Z,57.00
2019-02-28T07:42:45.804Z,44.67
2019-02-28T07:45:15.086Z,47.90
2019-02-28T07:47:43.549Z,36.60
2019-02-28T07:50:13.593Z,41.27
2019-02-28T07:52:42.093Z,50.80
2019-02-28T07:55:16.262Z,50.37
2019-02-28T07:57:44.766Z,67.27
2019-02-28T08:00:18.887Z,54.40
2019-02-28T08:02:47.310Z,44.00
2019-02-28T08:05:15.997Z,48.77
2019-02-28T08:07:50.313Z,44.30
2019-02-28T08:10:17.572Z,53.43
2019-02-28T08:12:46.003Z,58.93
2019-02-28T08:15:22.338Z,57.70
2019-02-28T08:17:51.068Z,55.13
2019-02-28T08:20:20.353Z,50.47
2019-02-28T08:22:48.859Z,46.50
2019-02-28T08:25:17.474Z,50.00
2019-02-28T08:27:45.900Z,42.77
2019-02-28T08:30:23.049Z,37.17
2019-02-28T08:32:51.474Z,48.87
2019-02-28T08:35:19.935Z,37.30
2019-02-28T08:37:55.734Z,31.63
2019-02-28T08:40:21.515Z,31.00
2019-02-28T08:42:50.123Z,31.17
2019-02-28T08:45:18.694Z,32.13
2019-02-28T08:47:47.131Z,29.60
2019-02-28T08:50:20.587Z,31.00
2019-02-28T08:52:53.789Z,31.80
2019-02-28T08:55:28.783Z,31.07
2019-02-28T08:57:56.002Z,39.03
2019-02-28T09:00:23.566Z,37.90
2019-02-28T09:02:52.865Z,40.10
2019-02-28T09:05:27.279Z,39.13
2019-02-28T09:07:53.017Z,37.40
2019-02-28T09:10:23.014Z,36.03
2019-02-28T09:12:51.578Z,38.07
2019-02-28T09:15:20.463Z,42.47
2019-02-28T09:17:49.052Z,44.30
2019-02-28T09:20:17.847Z,40.80
2019-02-28T09:22:46.301Z,41.13
2019-02-28T09:25:22.156Z,42.33
2019-02-28T09:27:50.118Z,43.43
2019-02-28T09:30:30.691Z,43.07
2019-02-28T09:32:59.234Z,54.47
2019-02-28T09:35:27.663Z,48.20
2019-02-28T09:37:56.124Z,44.87
2019-02-28T09:40:25.709Z,52.77
2019-02-28T09:42:54.846Z,51.90
2019-02-28T09:45:28.086Z,41.67
2019-02-28T09:48:00.845Z,49.43
2019-02-28T09:50:26.835Z,42.97
2019-02-28T09:52:55.291Z,42.80
2019-02-28T09:55:23.795Z,44.60
2019-02-28T09:57:54.786Z,42.40
2019-02-28T10:00:29.084Z,48.20
2019-02-28T10:02:57.531Z,42.07
2019-02-28T10:05:26.046Z,58.03
2019-02-28T10:07:54.482Z,49.20
2019-02-28T10:10:25.045Z,48.27
2019-02-28T10:12:54.389Z,47.53
2019-02-28T10:15:23.550Z,52.00
2019-02-28T10:17:52.074Z,48.40
2019-02-28T10:20:28.554Z,52.77
2019-02-28T10:22:57.344Z,46.77
2019-02-28T10:25:25.852Z,48.37
2019-02-28T10:27:54.846Z,51.40
2019-02-28T10:30:31.861Z,46.40
2019-02-28T10:32:55.757Z,45.20
2019-02-28T10:35:24.195Z,46.17
2019-02-28T10:37:57.311Z,44.33
2019-02-28T10:40:29.937Z,47.50
2019-02-28T10:42:58.702Z,46.30
2019-02-28T10:45:27.560Z,48.40
2019-02-28T10:47:56.047Z,42.07
2019-02-28T10:50:33.368Z,47.40
2019-02-28T10:53:05.447Z,47.67
2019-02-28T10:55:40.582Z,55.40
2019-02-28T10:58:09.190Z,51.70
2019-02-28T11:00:41.243Z,45.57
2019-02-28T11:03:09.748Z,40.27
2019-02-28T11:05:41.584Z,46.30
2019-02-28T11:08:14.824Z,45.20
2019-02-28T11:10:48.246Z,41.10
2019-02-28T11:13:21.561Z,40.90
2019-02-28T11:15:50.356Z,38.87
2019-02-28T11:18:18.955Z,33.17
2019-02-28T11:20:47.467Z,51.43
2019-02-28T11:23:16.642Z,34.83
2019-02-28T11:25:45.206Z,38.07
2019-02-28T11:28:14.447Z,33.30
2019-02-28T11:30:45.564Z,34.43
2019-02-28T11:33:15.343Z,37.30
2019-02-28T11:35:49.414Z,39.63
2019-02-28T11:38:22.003Z,36.67
2019-02-28T11:40:57.131Z,32.63
2019-02-28T11:43:23.153Z,34.27
2019-02-28T11:45:51.648Z,40.17
2019-02-28T11:48:26.058Z,34.13
2019-02-28T11:50:54.528Z,36.73
2019-02-28T11:53:22.964Z,35.17
2019-02-28T11:55:53.426Z,35.70
2019-02-28T11:58:26.840Z,44.37
2019-02-28T12:00:55.459Z,37.03
2019-02-28T12:03:23.963Z,40.63
2019-02-28T12:05:57.293Z,31.93
2019-02-28T12:08:26.251Z,37.97
2019-02-28T12:10:54.686Z,49.13
2019-02-28T12:13:23.199Z,36.50
2019-02-28T12:15:51.700Z,34.30
2019-02-28T12:18:20.138Z,39.67
2019-02-28T12:20:48.565Z,41.93
2019-02-28T12:23:16.996Z,43.70
2019-02-28T12:25:46.418Z,37.33
2019-02-28T12:28:14.934Z,37.27
2019-02-28T12:30:43.379Z,39.63
2019-02-28T12:33:11.834Z,42.87
2019-02-28T12:35:40.782Z,43.97
2019-02-28T12:38:09.345Z,40.93
2019-02-28T12:40:45.545Z,41.17
2019-02-28T12:43:13.825Z,42.77
2019-02-28T12:45:47.260Z,47.30
2019-02-28T12:48:15.146Z,36.73
2019-02-28T12:50:43.649Z,39.33
2019-02-28T12:53:12.164Z,38.07
2019-02-28T12:55:40.884Z,43.80
2019-02-28T12:58:09.354Z,44.33
2019-02-28T13:00:45.530Z,41.67
2019-02-28T13:03:19.329Z,46.60
2019-02-28T13:05:47.953Z,42.23
2019-02-28T13:08:16.132Z,44.37
2019-02-28T13:10:52.048Z,43.17
2019-02-28T13:13:28.785Z,43.53
2019-02-28T13:16:03.889Z,41.40
2019-02-28T13:18:32.906Z,34.93
2019-02-28T13:21:01.431Z,40.53
2019-02-28T13:23:32.972Z,35.90
2019-02-28T13:26:00.301Z,37.43
2019-02-28T13:28:28.775Z,39.37
2019-02-28T13:30:57.281Z,39.20
2019-02-28T13:33:25.779Z,40.93
2019-02-28T13:35:54.485Z,37.60
2019-02-28T13:38:22.933Z,37.90
2019-02-28T13:40:51.374Z,44.83
2019-02-28T13:43:22.655Z,38.33
2019-02-28T13:45:50.766Z,40.10
2019-02-28T13:48:26.021Z,35.00
2019-02-28T13:50:50.391Z,34.53
2019-02-28T13:53:19.046Z,34.37
2019-02-28T13:55:47.570Z,41.30
2019-02-28T13:58:17.665Z,37.37
2019-02-28T14:00:46.245Z,34.90
2019-02-28T14:03:16.987Z,39.70
2019-02-28T14:05:45.404Z,37.77
2019-02-28T14:08:14.016Z,30.20
2019-02-28T14:10:42.756Z,36.47
2019-02-28T14:13:11.383Z,22.47
2019-02-28T14:15:47.962Z,34.67
2019-02-28T14:18:15.259Z,32.57
2019-02-28T14:20:43.698Z,36.03
2019-02-28T14:23:12.206Z,39.07
2019-02-28T14:25:42.312Z,30.87
2019-02-28T14:28:10.812Z,34.10
2019-02-28T14:30:39.525Z,30.50
2019-02-28T14:33:08.547Z,31.93
2019-02-28T14:35:38.552Z,32.30
2019-02-28T14:38:07.434Z,31.03
2019-02-28T14:40:35.975Z,33.53
2019-02-28T14:43:04.601Z,31.50
2019-02-28T14:45:46.332Z,35.00
2019-02-28T14:48:14.831Z,26.40
2019-02-28T14:50:43.346Z,32.23
2019-02-28T14:53:14.349Z,36.73
2019-02-28T14:55:41.934Z,35.33
2019-02-28T14:58:10.383Z,36.23
2019-02-28T15:00:42.449Z,26.80
2019-02-28T15:03:09.609Z,29.00
2019-02-28T15:05:39.735Z,24.20
2019-02-28T15:08:08.315Z,35.43
2019-02-28T15:10:36.834Z,26.77
2019-02-28T15:13:05.355Z,29.97
2019-02-28T15:15:36.056Z,35.07
2019-02-28T15:18:04.815Z,24.50
2019-02-28T15:20:33.395Z,24.90
2019-02-28T15:23:01.874Z,27.23
2019-02-28T15:25:30.789Z,26.97
2019-02-28T15:27:59.444Z,32.27
2019-02-28T15:30:33.661Z,35.63
2019-02-28T15:33:02.420Z,33.70
2019-02-28T15:35:30.869Z,28.37
2019-02-28T15:37:59.367Z,35.83
2019-02-28T15:40:33.517Z,30.40
2019-02-28T15:43:02.015Z,31.30
2019-02-28T15:45:30.516Z,36.53
2019-02-28T15:48:00.424Z,36.30
2019-02-28T15:50:29.073Z,32.27
2019-02-28T15:52:58.443Z,34.43
2019-02-28T15:55:27.020Z,34.07
2019-02-28T15:57:55.533Z,36.60
2019-02-28T16:00:29.619Z,36.80
2019-02-28T16:02:58.325Z,37.10
2019-02-28T16:05:26.904Z,36.50
2019-02-28T16:07:55.799Z,37.17
2019-02-28T16:10:28.549Z,33.47
2019-02-28T16:12:57.673Z,39.83
2019-02-28T16:15:26.265Z,41.00
2019-02-28T16:17:54.789Z,48.80
2019-02-28T16:20:25.016Z,36.57
2019-02-28T16:22:53.778Z,35.83
2019-02-28T16:25:31.147Z,37.90
2019-02-28T16:27:59.600Z,41.67
2019-02-28T16:30:28.788Z,39.93
2019-02-28T16:32:58.345Z,40.30
2019-02-28T16:35:28.881Z,45.20
2019-02-28T16:37:56.966Z,51.97
2019-02-28T16:40:27.328Z,44.23
2019-02-28T16:42:55.843Z,39.50
2019-02-28T16:45:30.870Z,38.27
2019-02-28T16:48:02.962Z,38.23
2019-02-28T16:50:31.126Z,34.33
2019-02-28T16:52:59.571Z,40.50
2019-02-28T16:55:31.091Z,40.27
2019-02-28T16:57:58.252Z,41.87
2019-02-28T17:00:27.230Z,37.10
2019-02-28T17:02:55.681Z,46.20
2019-02-28T17:05:28.038Z,37.73
2019-02-28T17:07:54.401Z,41.57
2019-02-28T17:10:36.649Z,31.53
2019-02-28T17:13:23.863Z,38.63
2019-02-28T17:16:01.605Z,34.80
2019-02-28T17:18:31.534Z,37.87
2019-02-28T17:20:59.978Z,37.67
2019-02-28T17:23:28.498Z,32.80
2019-02-28T17:25:57.600Z,39.57
2019-02-28T17:28:39.790Z,35.80
2019-02-28T17:31:12.819Z,32.37
2019-02-28T17:33:43.401Z,30.93
2019-02-28T17:36:12.504Z,41.20
2019-02-28T17:38:41.089Z,31.83
2019-02-28T17:41:11.020Z,37.63
2019-02-28T17:43:39.933Z,35.30
2019-02-28T17:46:11.695Z,33.17
2019-02-28T17:49:01.033Z,36.27
2019-02-28T17:51:38.078Z,29.50
2019-02-28T17:54:22.016Z,30.80
2019-02-28T17:57:06.469Z,38.43
2019-02-28T17:59:43.863Z,32.90
2019-02-28T18:02:31.597Z,34.30
2019-02-28T18:05:19.578Z,34.77
2019-02-28T18:07:57.845Z,41.40
2019-02-28T18:10:36.150Z,29.10
2019-02-28T18:13:22.910Z,30.00
2019-02-28T18:16:06.581Z,32.40
2019-02-28T18:18:46.657Z,33.53
2019-02-28T18:21:18.208Z,36.00
2019-02-28T18:24:05.181Z,34.03
2019-02-28T18:26:45.828Z,34.60
2019-02-28T18:29:23.075Z,26.27
2019-02-28T18:31:53.855Z,27.57
2019-02-28T18:34:21.730Z,22.30
2019-02-28T18:36:50.205Z,16.03
2019-02-28T18:39:18.638Z,22.70
2019-02-28T18:41:47.087Z,14.67
2019-02-28T18:44:15.671Z,21.60
2019-02-28T18:46:44.187Z,22.23
2019-02-28T18:49:12.611Z,17.10
2019-02-28T18:51:41.077Z,18.73
2019-02-28T18:54:09.533Z,16.13
2019-02-28T18:56:37.970Z,17.10
2019-02-28T18:59:06.465Z,14.90
2019-02-28T19:01:34.899Z,16.33
2019-02-28T19:04:03.402Z,20.10
2019-02-28T19:06:31.837Z,16.83
2019-02-28T19:09:00.283Z,12.17
2019-02-28T19:11:28.721Z,16.73
2019-02-28T19:13:57.251Z,14.40
2019-02-28T19:16:25.770Z,13.47
2019-02-28T19:18:54.221Z,15.13
2019-02-28T19:21:22.668Z,14.40
2019-02-28T19:23:51.089Z,15.93
2019-02-28T19:26:19.507Z,11.80
2019-02-28T19:28:47.970Z,13.43
2019-02-28T19:31:16.405Z,18.97
2019-02-28T19:33:44.851Z,16.03
2019-02-28T19:36:13.289Z,14.30
2019-02-28T19:38:41.747Z,14.77
2019-02-28T19:41:10.180Z,13.10
2019-02-28T19:43:38.633Z,16.50
2019-02-28T19:46:07.153Z,11.50
2019-02-28T19:48:36.381Z,14.13
2019-02-28T19:51:04.951Z,13.90
2019-02-28T19:53:33.405Z,15.07
2019-02-28T19:56:02.721Z,16.50
2019-02-28T19:58:31.198Z,14.30
2019-02-28T20:00:59.607Z,18.07
2019-02-28T20:03:28.065Z,16.90
2019-02-28T20:05:56.478Z,12.40
2019-02-28T20:08:24.937Z,16.03
2019-02-28T20:10:53.450Z,14.93
2019-02-28T20:13:21.906Z,15.67
2019-02-28T20:15:50.347Z,15.10
2019-02-28T20:18:18.794Z,16.47
2019-02-28T20:20:47.216Z,11.77
2019-02-28T20:23:15.705Z,17.87
2019-02-28T20:25:44.208Z,23.20
2019-02-28T20:28:12.727Z,14.33
2019-02-28T20:30:41.228Z,17.33
2019-02-28T20:33:09.642Z,13.57
2019-02-28T20:35:38.232Z,16.77
2019-02-28T20:38:06.666Z,17.57
2019-02-28T20:40:36.738Z,18.43
2019-02-28T20:43:05.246Z,13.23
2019-02-28T20:45:33.709Z,15.90
2019-02-28T20:48:04.094Z,23.20
2019-02-28T20:50:38.055Z,20.63
2019-02-28T20:53:06.478Z,18.20
2019-02-28T20:55:34.957Z,18.53
2019-02-28T20:58:03.464Z,15.83
2019-02-28T21:00:31.914Z,20.43
2019-02-28T21:03:00.346Z,25.13
2019-02-28T21:05:28.804Z,15.20
2019-02-28T21:07:57.241Z,26.07
2019-02-28T21:10:25.769Z,18.67
2019-02-28T21:15:38.353Z,22.40
2019-02-28T21:18:19.045Z,23.40
2019-02-28T21:20:59.928Z,23.50
2019-02-28T21:23:40.907Z,21.63
2019-02-28T21:26:21.733Z,21.17
2019-02-28T21:29:02.454Z,24.60
2019-02-28T21:31:43.298Z,20.43
2019-02-28T21:34:23.863Z,24.17
2019-02-28T21:36:52.302Z,21.03
2019-02-28T21:39:40.138Z,24.60
2019-02-28T21:42:27.914Z,17.80
2019-02-28T21:45:36.413Z,19.90
2019-02-28T21:48:17.117Z,30.17
2019-02-28T21:50:57.744Z,28.00
2019-02-28T21:53:38.841Z,18.97
2019-02-28T21:56:19.718Z,30.40
2019-02-28T21:59:00.474Z,25.80
2019-02-28T22:01:41.527Z,40.80
2019-02-28T22:04:22.188Z,28.20
2019-02-28T22:07:03.177Z,31.10
2019-02-28T22:09:43.948Z,23.03
2019-02-28T22:12:24.604Z,19.80
2019-02-28T22:15:05.502Z,23.23
2019-02-28T22:17:46.330Z,27.97
2019-02-28T22:20:26.774Z,23.13
2019-02-28T22:23:07.936Z,22.40
2019-02-28T22:25:48.195Z,27.07
2019-02-28T22:28:28.803Z,25.60
2019-02-28T22:31:28.589Z,24.43
2019-02-28T22:34:13.290Z,25.23
2019-02-28T22:36:53.542Z,21.00
2019-02-28T22:39:34.620Z,21.63
2019-02-28T22:42:22.016Z,27.30
2019-02-28T22:44:58.389Z,23.10
2019-02-28T22:47:39.514Z,26.40
2019-02-28T22:50:20.309Z,15.83
2019-02-28T22:53:01.147Z,25.00
2019-02-28T22:55:41.693Z,22.33
2019-02-28T22:58:22.653Z,18.10
2019-02-28T23:01:07.687Z,25.97
2019-02-28T23:03:48.392Z,23.80
2019-02-28T23:06:29.190Z,28.30
2019-02-28T23:09:09.866Z,19.50
2019-02-28T23:11:50.220Z,20.57
2019-02-28T23:14:31.199Z,16.30
2019-02-28T23:17:11.550Z,22.40
2019-02-28T23:19:52.384Z,24.87
2019-02-28T23:22:32.836Z,32.50
2019-02-28T23:25:13.553Z,18.93
2019-02-28T23:27:54.489Z,19.30
2019-02-28T23:30:35.265Z,18.90
2019-02-28T23:33:16.140Z,26.93
2019-02-28T23:35:56.827Z,24.37
2019-02-28T23:38:37.353Z,25.20
2019-02-28T23:41:17.946Z,19.50
2019-02-28T23:43:58.673Z,18.93
2019-02-28T23:46:39.240Z,17.50
2019-02-28T23:49:19.697Z,15.60
2019-02-28T23:52:00.194Z,24.10
2019-02-28T23:54:41.007Z,22.63
2019-02-28T23:57:21.770Z,18.33
